sensor_id;sensor_type;location;lat;lon;timestamp;temperature;humidity
20141;DHT22;10231;47.702;9.826;2024-01-30T00:01:00;0.90;99.90
20141;DHT22;10231;47.702;9.826;2024-01-30T00:03:26;0.90;99.90
20141;DHT22;10231;47.702;9.826;2024-01-30T00:05:52;0.90;99.90
20141;DHT22;10231;47.702;9.826;2024-01-30T00:08:17;0.90;99.90
20141;DHT22;10231;47.702;9.826;2024-01-30T00:10:43;0.80;99.90
20141;DHT22;10231;47.702;9.826;2024-01-30T00:13:09;0.80;99.90
20141;DHT22;10231;47.702;9.826;2024-01-30T00:15:34;0.90;99.90
20141;DHT22;10231;47.702;9.826;2024-01-30T00:18:00;0.90;99.90
20141;DHT22;10231;47.702;9.826;2024-01-30T00:20:26;0.80;99.90
20141;DHT22;10231;47.702;9.826;2024-01-30T00:22:52;0.80;99.90
20141;DHT22;10231;47.702;9.826;2024-01-30T00:25:17;0.70;99.90
20141;DHT22;10231;47.702;9.826;2024-01-30T00:27:43;0.60;99.90
20141;DHT22;10231;47.702;9.826;2024-01-30T00:30:09;0.60;99.90
20141;DHT22;10231;47.702;9.826;2024-01-30T00:32:35;0.40;99.90
20141;DHT22;10231;47.702;9.826;2024-01-30T00:35:00;0.40;99.90
20141;DHT22;10231;47.702;9.826;2024-01-30T00:37:26;0.40;99.90
20141;DHT22;10231;47.702;9.826;2024-01-30T00:39:51;0.50;99.90
20141;DHT22;10231;47.702;9.826;2024-01-30T00:42:17;0.50;99.90
20141;DHT22;10231;47.702;9.826;2024-01-30T00:44:43;0.60;99.90
20141;DHT22;10231;47.702;9.826;2024-01-30T00:47:08;0.60;99.90
20141;DHT22;10231;47.702;9.826;2024-01-30T00:49:34;0.60;99.90
20141;DHT22;10231;47.702;9.826;2024-01-30T00:52:00;0.70;99.90
20141;DHT22;10231;47.702;9.826;2024-01-30T00:54:25;0.80;99.90
20141;DHT22;10231;47.702;9.826;2024-01-30T00:56:51;0.80;99.90
20141;DHT22;10231;47.702;9.826;2024-01-30T00:59:16;0.80;99.90
20141;DHT22;10231;47.702;9.826;2024-01-30T01:01:42;0.80;99.90
20141;DHT22;10231;47.702;9.826;2024-01-30T01:04:07;0.70;99.90
20141;DHT22;10231;47.702;9.826;2024-01-30T01:06:33;0.70;99.90
20141;DHT22;10231;47.702;9.826;2024-01-30T01:08:58;0.80;99.90
20141;DHT22;10231;47.702;9.826;2024-01-30T01:11:24;0.80;99.90
20141;DHT22;10231;47.702;9.826;2024-01-30T01:13:49;0.80;99.90
20141;DHT22;10231;47.702;9.826;2024-01-30T01:16:15;0.80;99.90
20141;DHT22;10231;47.702;9.826;2024-01-30T01:18:41;0.80;99.90
20141;DHT22;10231;47.702;9.826;2024-01-30T01:21:06;0.80;99.90
20141;DHT22;10231;47.702;9.826;2024-01-30T01:23:32;0.80;99.90
20141;DHT22;10231;47.702;9.826;2024-01-30T01:25:57;0.70;99.90
20141;DHT22;10231;47.702;9.826;2024-01-30T01:28:25;0.70;99.90
20141;DHT22;10231;47.702;9.826;2024-01-30T01:30:50;0.70;99.90
20141;DHT22;10231;47.702;9.826;2024-01-30T01:33:16;0.70;99.90
20141;DHT22;10231;47.702;9.826;2024-01-30T01:35:42;0.80;99.90
20141;DHT22;10231;47.702;9.826;2024-01-30T01:38:08;0.70;99.90
20141;DHT22;10231;47.702;9.826;2024-01-30T01:40:34;0.60;99.90
20141;DHT22;10231;47.702;9.826;2024-01-30T01:43:03;0.50;99.90
20141;DHT22;10231;47.702;9.826;2024-01-30T01:45:29;0.50;99.90
20141;DHT22;10231;47.702;9.826;2024-01-30T01:47:55;0.50;99.90
20141;DHT22;10231;47.702;9.826;2024-01-30T01:50:21;0.50;99.90
20141;DHT22;10231;47.702;9.826;2024-01-30T01:52:50;0.50;99.90
20141;DHT22;10231;47.702;9.826;2024-01-30T01:55:16;0.50;99.90
20141;DHT22;10231;47.702;9.826;2024-01-30T01:57:46;0.40;99.90
20141;DHT22;10231;47.702;9.826;2024-01-30T02:00:12;0.50;99.90
20141;DHT22;10231;47.702;9.826;2024-01-30T02:02:39;0.50;99.90
20141;DHT22;10231;47.702;9.826;2024-01-30T02:05:05;0.50;99.90
20141;DHT22;10231;47.702;9.826;2024-01-30T02:07:31;0.50;99.90
20141;DHT22;10231;47.702;9.826;2024-01-30T02:09:56;0.40;99.90
20141;DHT22;10231;47.702;9.826;2024-01-30T02:12:22;0.50;99.90
20141;DHT22;10231;47.702;9.826;2024-01-30T02:14:49;0.40;99.90
20141;DHT22;10231;47.702;9.826;2024-01-30T02:17:15;0.50;99.90
20141;DHT22;10231;47.702;9.826;2024-01-30T02:19:41;0.60;99.90
20141;DHT22;10231;47.702;9.826;2024-01-30T02:22:07;0.50;99.90
20141;DHT22;10231;47.702;9.826;2024-01-30T02:24:32;0.30;99.90
20141;DHT22;10231;47.702;9.826;2024-01-30T02:26:58;0.30;99.90
20141;DHT22;10231;47.702;9.826;2024-01-30T02:29:24;0.40;99.90
20141;DHT22;10231;47.702;9.826;2024-01-30T02:31:49;0.30;99.90
20141;DHT22;10231;47.702;9.826;2024-01-30T02:34:15;0.30;99.90
20141;DHT22;10231;47.702;9.826;2024-01-30T02:36:44;0.30;99.90
20141;DHT22;10231;47.702;9.826;2024-01-30T02:39:10;0.30;99.90
20141;DHT22;10231;47.702;9.826;2024-01-30T02:41:36;0.10;99.90
20141;DHT22;10231;47.702;9.826;2024-01-30T02:44:02;0.20;99.90
20141;DHT22;10231;47.702;9.826;2024-01-30T02:46:28;0.10;99.90
20141;DHT22;10231;47.702;9.826;2024-01-30T02:48:53;0.20;99.90
20141;DHT22;10231;47.702;9.826;2024-01-30T02:51:19;0.20;99.90
20141;DHT22;10231;47.702;9.826;2024-01-30T02:53:44;0.10;99.90
20141;DHT22;10231;47.702;9.826;2024-01-30T02:56:10;0.10;99.90
20141;DHT22;10231;47.702;9.826;2024-01-30T02:58:36;0.00;99.90
20141;DHT22;10231;47.702;9.826;2024-01-30T03:01:02;0.00;99.90
20141;DHT22;10231;47.702;9.826;2024-01-30T03:03:28;0.00;99.90
20141;DHT22;10231;47.702;9.826;2024-01-30T03:05:53;0.00;99.90
20141;DHT22;10231;47.702;9.826;2024-01-30T03:08:19;0.10;99.90
20141;DHT22;10231;47.702;9.826;2024-01-30T03:10:45;0.20;99.90
20141;DHT22;10231;47.702;9.826;2024-01-30T03:13:10;0.20;99.90
20141;DHT22;10231;47.702;9.826;2024-01-30T03:15:36;0.30;99.90
20141;DHT22;10231;47.702;9.826;2024-01-30T03:18:02;0.30;99.90
20141;DHT22;10231;47.702;9.826;2024-01-30T03:20:29;0.40;99.90
20141;DHT22;10231;47.702;9.826;2024-01-30T03:22:55;0.50;99.90
20141;DHT22;10231;47.702;9.826;2024-01-30T03:25:21;0.50;99.90
20141;DHT22;10231;47.702;9.826;2024-01-30T03:27:47;0.60;99.90
20141;DHT22;10231;47.702;9.826;2024-01-30T03:30:13;0.50;99.90
20141;DHT22;10231;47.702;9.826;2024-01-30T03:32:38;0.50;99.90
20141;DHT22;10231;47.702;9.826;2024-01-30T03:35:04;0.60;99.90
20141;DHT22;10231;47.702;9.826;2024-01-30T03:37:30;0.70;99.90
20141;DHT22;10231;47.702;9.826;2024-01-30T03:39:55;0.70;99.90
20141;DHT22;10231;47.702;9.826;2024-01-30T03:42:21;0.70;99.90
20141;DHT22;10231;47.702;9.826;2024-01-30T03:44:47;0.70;99.90
20141;DHT22;10231;47.702;9.826;2024-01-30T03:47:13;0.60;99.90
20141;DHT22;10231;47.702;9.826;2024-01-30T03:49:39;0.60;99.90
20141;DHT22;10231;47.702;9.826;2024-01-30T03:52:05;0.70;99.90
20141;DHT22;10231;47.702;9.826;2024-01-30T03:54:31;0.60;99.90
20141;DHT22;10231;47.702;9.826;2024-01-30T03:56:56;0.60;99.90
20141;DHT22;10231;47.702;9.826;2024-01-30T03:59:22;0.50;99.90
20141;DHT22;10231;47.702;9.826;2024-01-30T04:01:50;0.50;99.90
20141;DHT22;10231;47.702;9.826;2024-01-30T04:04:17;0.40;99.90
20141;DHT22;10231;47.702;9.826;2024-01-30T04:06:43;0.40;99.90
20141;DHT22;10231;47.702;9.826;2024-01-30T04:09:09;0.40;99.90
20141;DHT22;10231;47.702;9.826;2024-01-30T04:11:35;0.30;99.90
20141;DHT22;10231;47.702;9.826;2024-01-30T04:14:00;0.30;99.90
20141;DHT22;10231;47.702;9.826;2024-01-30T04:16:26;0.40;99.90
20141;DHT22;10231;47.702;9.826;2024-01-30T04:18:52;0.30;99.90
20141;DHT22;10231;47.702;9.826;2024-01-30T04:21:17;0.40;99.90
20141;DHT22;10231;47.702;9.826;2024-01-30T04:23:43;0.40;99.90
20141;DHT22;10231;47.702;9.826;2024-01-30T04:26:09;0.40;99.90
20141;DHT22;10231;47.702;9.826;2024-01-30T04:28:34;0.30;99.90
20141;DHT22;10231;47.702;9.826;2024-01-30T04:31:00;0.40;99.90
20141;DHT22;10231;47.702;9.826;2024-01-30T04:33:25;0.30;99.90
20141;DHT22;10231;47.702;9.826;2024-01-30T04:35:51;0.30;99.90
20141;DHT22;10231;47.702;9.826;2024-01-30T04:38:17;0.20;99.90
20141;DHT22;10231;47.702;9.826;2024-01-30T04:40:43;0.10;99.90
20141;DHT22;10231;47.702;9.826;2024-01-30T04:43:08;0.00;99.90
20141;DHT22;10231;47.702;9.826;2024-01-30T04:45:34;0.10;99.90
20141;DHT22;10231;47.702;9.826;2024-01-30T04:47:59;0.20;99.90
20141;DHT22;10231;47.702;9.826;2024-01-30T04:50:25;0.30;99.90
20141;DHT22;10231;47.702;9.826;2024-01-30T04:52:52;0.20;99.90
20141;DHT22;10231;47.702;9.826;2024-01-30T04:55:17;0.20;99.90
20141;DHT22;10231;47.702;9.826;2024-01-30T04:57:43;0.20;99.90
20141;DHT22;10231;47.702;9.826;2024-01-30T05:00:09;0.20;99.90
20141;DHT22;10231;47.702;9.826;2024-01-30T05:02:35;0.20;99.90
20141;DHT22;10231;47.702;9.826;2024-01-30T05:05:00;0.30;99.90
20141;DHT22;10231;47.702;9.826;2024-01-30T05:07:26;0.30;99.90
20141;DHT22;10231;47.702;9.826;2024-01-30T05:09:51;0.30;99.90
20141;DHT22;10231;47.702;9.826;2024-01-30T05:12:17;0.30;99.90
20141;DHT22;10231;47.702;9.826;2024-01-30T05:14:43;0.30;99.90
20141;DHT22;10231;47.702;9.826;2024-01-30T05:17:08;0.30;99.90
20141;DHT22;10231;47.702;9.826;2024-01-30T05:19:35;0.20;99.90
20141;DHT22;10231;47.702;9.826;2024-01-30T05:22:01;0.00;99.90
20141;DHT22;10231;47.702;9.826;2024-01-30T05:24:26;0.00;99.90
20141;DHT22;10231;47.702;9.826;2024-01-30T05:26:52;0.00;99.90
20141;DHT22;10231;47.702;9.826;2024-01-30T05:29:17;0.20;99.90
20141;DHT22;10231;47.702;9.826;2024-01-30T05:31:43;0.10;99.90
20141;DHT22;10231;47.702;9.826;2024-01-30T05:34:08;0.10;99.90
20141;DHT22;10231;47.702;9.826;2024-01-30T05:36:34;0.10;99.90
20141;DHT22;10231;47.702;9.826;2024-01-30T05:39:00;0.00;99.90
20141;DHT22;10231;47.702;9.826;2024-01-30T05:41:26;0.10;99.90
20141;DHT22;10231;47.702;9.826;2024-01-30T05:43:51;0.20;99.90
20141;DHT22;10231;47.702;9.826;2024-01-30T05:46:17;0.20;99.90
20141;DHT22;10231;47.702;9.826;2024-01-30T05:48:42;0.20;99.90
20141;DHT22;10231;47.702;9.826;2024-01-30T05:51:08;0.10;99.90
20141;DHT22;10231;47.702;9.826;2024-01-30T05:53:34;0.10;99.90
20141;DHT22;10231;47.702;9.826;2024-01-30T05:56:03;0.00;99.90
20141;DHT22;10231;47.702;9.826;2024-01-30T05:58:29;-0.10;99.90
20141;DHT22;10231;47.702;9.826;2024-01-30T06:00:56;-0.10;99.90
20141;DHT22;10231;47.702;9.826;2024-01-30T06:03:22;0.00;99.90
20141;DHT22;10231;47.702;9.826;2024-01-30T06:05:48;0.00;99.90
20141;DHT22;10231;47.702;9.826;2024-01-30T06:08:13;0.00;99.90
20141;DHT22;10231;47.702;9.826;2024-01-30T06:10:44;-0.10;99.90
20141;DHT22;10231;47.702;9.826;2024-01-30T06:13:10;-0.10;99.90
20141;DHT22;10231;47.702;9.826;2024-01-30T06:15:35;-0.10;99.90
20141;DHT22;10231;47.702;9.826;2024-01-30T06:18:01;-0.10;99.90
20141;DHT22;10231;47.702;9.826;2024-01-30T06:20:26;-0.20;99.90
20141;DHT22;10231;47.702;9.826;2024-01-30T06:22:52;-0.20;99.90
20141;DHT22;10231;47.702;9.826;2024-01-30T06:25:18;-0.10;99.90
20141;DHT22;10231;47.702;9.826;2024-01-30T06:27:43;0.00;99.90
20141;DHT22;10231;47.702;9.826;2024-01-30T06:30:09;0.10;99.90
20141;DHT22;10231;47.702;9.826;2024-01-30T06:32:38;0.10;99.90
20141;DHT22;10231;47.702;9.826;2024-01-30T06:35:04;0.10;99.90
20141;DHT22;10231;47.702;9.826;2024-01-30T06:37:31;0.10;99.90
20141;DHT22;10231;47.702;9.826;2024-01-30T06:39:56;0.00;99.90
20141;DHT22;10231;47.702;9.826;2024-01-30T06:42:22;0.10;99.90
20141;DHT22;10231;47.702;9.826;2024-01-30T06:44:47;0.10;99.90
20141;DHT22;10231;47.702;9.826;2024-01-30T06:47:13;0.00;99.90
20141;DHT22;10231;47.702;9.826;2024-01-30T06:49:38;0.00;99.90
20141;DHT22;10231;47.702;9.826;2024-01-30T06:52:08;-0.10;99.90
20141;DHT22;10231;47.702;9.826;2024-01-30T06:54:34;-0.20;99.90
20141;DHT22;10231;47.702;9.826;2024-01-30T06:56:59;-0.10;99.90
20141;DHT22;10231;47.702;9.826;2024-01-30T06:59:25;-0.10;99.90
20141;DHT22;10231;47.702;9.826;2024-01-30T07:01:51;-0.20;99.90
20141;DHT22;10231;47.702;9.826;2024-01-30T07:04:17;-0.10;99.90
20141;DHT22;10231;47.702;9.826;2024-01-30T07:06:43;-0.10;99.90
20141;DHT22;10231;47.702;9.826;2024-01-30T07:09:09;-0.10;99.90
20141;DHT22;10231;47.702;9.826;2024-01-30T07:11:35;0.00;99.90
20141;DHT22;10231;47.702;9.826;2024-01-30T07:14:00;0.00;99.90
20141;DHT22;10231;47.702;9.826;2024-01-30T07:16:29;0.10;99.90
20141;DHT22;10231;47.702;9.826;2024-01-30T07:18:54;0.10;99.90
20141;DHT22;10231;47.702;9.826;2024-01-30T07:21:21;0.20;99.90
20141;DHT22;10231;47.702;9.826;2024-01-30T07:23:50;0.10;99.90
20141;DHT22;10231;47.702;9.826;2024-01-30T07:26:16;0.20;99.90
20141;DHT22;10231;47.702;9.826;2024-01-30T07:28:41;0.20;99.90
20141;DHT22;10231;47.702;9.826;2024-01-30T07:31:08;0.20;99.90
20141;DHT22;10231;47.702;9.826;2024-01-30T07:33:33;0.30;99.90
20141;DHT22;10231;47.702;9.826;2024-01-30T07:35:59;0.30;99.90
20141;DHT22;10231;47.702;9.826;2024-01-30T07:38:25;0.30;99.90
20141;DHT22;10231;47.702;9.826;2024-01-30T07:40:50;0.30;99.90
20141;DHT22;10231;47.702;9.826;2024-01-30T07:43:16;0.40;99.90
20141;DHT22;10231;47.702;9.826;2024-01-30T07:45:41;0.40;99.90
20141;DHT22;10231;47.702;9.826;2024-01-30T07:48:07;0.50;99.90
20141;DHT22;10231;47.702;9.826;2024-01-30T07:50:32;0.60;99.90
20141;DHT22;10231;47.702;9.826;2024-01-30T07:53:00;0.60;99.90
20141;DHT22;10231;47.702;9.826;2024-01-30T07:55:25;0.80;99.90
20141;DHT22;10231;47.702;9.826;2024-01-30T07:57:54;0.80;99.90
20141;DHT22;10231;47.702;9.826;2024-01-30T08:00:21;0.80;99.90
20141;DHT22;10231;47.702;9.826;2024-01-30T08:02:47;0.90;99.90
20141;DHT22;10231;47.702;9.826;2024-01-30T08:05:13;1.00;99.90
20141;DHT22;10231;47.702;9.826;2024-01-30T08:07:40;1.00;99.90
20141;DHT22;10231;47.702;9.826;2024-01-30T08:10:06;1.00;99.90
20141;DHT22;10231;47.702;9.826;2024-01-30T08:12:32;1.10;99.90
20141;DHT22;10231;47.702;9.826;2024-01-30T08:14:57;1.20;99.90
20141;DHT22;10231;47.702;9.826;2024-01-30T08:17:23;1.30;99.90
20141;DHT22;10231;47.702;9.826;2024-01-30T08:19:48;1.30;99.90
20141;DHT22;10231;47.702;9.826;2024-01-30T08:22:14;1.30;99.90
20141;DHT22;10231;47.702;9.826;2024-01-30T08:24:41;1.40;99.90
20141;DHT22;10231;47.702;9.826;2024-01-30T08:27:07;1.40;99.90
20141;DHT22;10231;47.702;9.826;2024-01-30T08:29:35;1.40;99.90
20141;DHT22;10231;47.702;9.826;2024-01-30T08:32:00;1.50;99.90
20141;DHT22;10231;47.702;9.826;2024-01-30T08:34:26;1.50;99.90
20141;DHT22;10231;47.702;9.826;2024-01-30T08:36:52;1.60;99.90
20141;DHT22;10231;47.702;9.826;2024-01-30T08:39:18;1.70;99.90
20141;DHT22;10231;47.702;9.826;2024-01-30T08:41:44;1.70;99.90
20141;DHT22;10231;47.702;9.826;2024-01-30T08:44:09;1.80;99.90
20141;DHT22;10231;47.702;9.826;2024-01-30T08:46:36;1.80;99.90
20141;DHT22;10231;47.702;9.826;2024-01-30T08:49:02;1.90;99.90
20141;DHT22;10231;47.702;9.826;2024-01-30T08:51:28;1.90;99.90
20141;DHT22;10231;47.702;9.826;2024-01-30T08:53:53;1.90;99.90
20141;DHT22;10231;47.702;9.826;2024-01-30T08:56:19;2.00;99.90
20141;DHT22;10231;47.702;9.826;2024-01-30T08:58:45;2.00;99.90
20141;DHT22;10231;47.702;9.826;2024-01-30T09:01:10;2.00;99.90
20141;DHT22;10231;47.702;9.826;2024-01-30T09:03:36;2.10;99.90
20141;DHT22;10231;47.702;9.826;2024-01-30T09:06:08;2.10;99.90
20141;DHT22;10231;47.702;9.826;2024-01-30T09:08:34;2.20;99.90
20141;DHT22;10231;47.702;9.826;2024-01-30T09:10:59;2.20;99.90
20141;DHT22;10231;47.702;9.826;2024-01-30T09:13:25;2.30;99.90
20141;DHT22;10231;47.702;9.826;2024-01-30T09:15:51;2.40;99.90
20141;DHT22;10231;47.702;9.826;2024-01-30T09:18:16;2.40;99.90
20141;DHT22;10231;47.702;9.826;2024-01-30T09:20:42;2.50;99.90
20141;DHT22;10231;47.702;9.826;2024-01-30T09:23:07;2.60;99.90
20141;DHT22;10231;47.702;9.826;2024-01-30T09:25:33;2.60;99.90
20141;DHT22;10231;47.702;9.826;2024-01-30T09:27:59;2.70;99.90
20141;DHT22;10231;47.702;9.826;2024-01-30T09:30:25;2.80;99.90
20141;DHT22;10231;47.702;9.826;2024-01-30T09:32:50;2.80;99.90
20141;DHT22;10231;47.702;9.826;2024-01-30T09:35:16;2.90;99.90
20141;DHT22;10231;47.702;9.826;2024-01-30T09:37:41;2.90;99.90
20141;DHT22;10231;47.702;9.826;2024-01-30T09:40:07;2.90;99.90
20141;DHT22;10231;47.702;9.826;2024-01-30T09:42:35;2.90;99.90
20141;DHT22;10231;47.702;9.826;2024-01-30T09:45:04;3.00;99.90
20141;DHT22;10231;47.702;9.826;2024-01-30T09:47:42;3.10;99.90
20141;DHT22;10231;47.702;9.826;2024-01-30T09:50:09;3.20;99.90
20141;DHT22;10231;47.702;9.826;2024-01-30T09:52:35;3.20;99.90
20141;DHT22;10231;47.702;9.826;2024-01-30T09:55:00;3.30;99.90
20141;DHT22;10231;47.702;9.826;2024-01-30T09:57:26;3.40;99.90
20141;DHT22;10231;47.702;9.826;2024-01-30T09:59:52;3.50;99.90
20141;DHT22;10231;47.702;9.826;2024-01-30T10:02:20;3.50;99.90
20141;DHT22;10231;47.702;9.826;2024-01-30T10:04:48;3.60;99.90
20141;DHT22;10231;47.702;9.826;2024-01-30T10:07:15;3.60;99.90
20141;DHT22;10231;47.702;9.826;2024-01-30T10:09:41;3.70;99.90
20141;DHT22;10231;47.702;9.826;2024-01-30T10:12:07;3.80;99.90
20141;DHT22;10231;47.702;9.826;2024-01-30T10:14:33;3.80;99.90
20141;DHT22;10231;47.702;9.826;2024-01-30T10:16:59;3.90;99.90
20141;DHT22;10231;47.702;9.826;2024-01-30T10:19:24;4.00;99.90
20141;DHT22;10231;47.702;9.826;2024-01-30T10:21:50;4.00;99.90
20141;DHT22;10231;47.702;9.826;2024-01-30T10:24:16;4.00;99.90
20141;DHT22;10231;47.702;9.826;2024-01-30T10:26:44;4.10;99.90
20141;DHT22;10231;47.702;9.826;2024-01-30T10:29:09;4.20;99.90
20141;DHT22;10231;47.702;9.826;2024-01-30T10:31:35;4.20;99.90
20141;DHT22;10231;47.702;9.826;2024-01-30T10:34:01;4.30;99.90
20141;DHT22;10231;47.702;9.826;2024-01-30T10:36:28;4.40;99.90
20141;DHT22;10231;47.702;9.826;2024-01-30T10:38:59;4.40;99.90
20141;DHT22;10231;47.702;9.826;2024-01-30T10:41:31;4.50;99.90
20141;DHT22;10231;47.702;9.826;2024-01-30T10:44:09;4.60;99.90
20141;DHT22;10231;47.702;9.826;2024-01-30T10:46:38;4.60;99.90
20141;DHT22;10231;47.702;9.826;2024-01-30T10:49:04;4.70;99.90
20141;DHT22;10231;47.702;9.826;2024-01-30T10:51:32;4.80;99.90
20141;DHT22;10231;47.702;9.826;2024-01-30T10:53:57;4.90;99.90
20141;DHT22;10231;47.702;9.826;2024-01-30T10:56:24;5.00;99.90
20141;DHT22;10231;47.702;9.826;2024-01-30T10:58:51;5.00;99.90
20141;DHT22;10231;47.702;9.826;2024-01-30T11:01:22;5.00;99.90
20141;DHT22;10231;47.702;9.826;2024-01-30T11:03:50;5.10;99.90
20141;DHT22;10231;47.702;9.826;2024-01-30T11:06:16;5.20;99.90
20141;DHT22;10231;47.702;9.826;2024-01-30T11:08:47;5.30;99.90
20141;DHT22;10231;47.702;9.826;2024-01-30T11:11:25;5.30;99.90
20141;DHT22;10231;47.702;9.826;2024-01-30T11:13:50;5.40;99.90
20141;DHT22;10231;47.702;9.826;2024-01-30T11:16:16;5.60;99.90
20141;DHT22;10231;47.702;9.826;2024-01-30T11:18:41;5.60;99.90
20141;DHT22;10231;47.702;9.826;2024-01-30T11:21:07;5.60;99.90
20141;DHT22;10231;47.702;9.826;2024-01-30T11:23:33;5.70;99.90
20141;DHT22;10231;47.702;9.826;2024-01-30T11:26:00;5.80;99.90
20141;DHT22;10231;47.702;9.826;2024-01-30T11:28:32;5.90;99.90
20141;DHT22;10231;47.702;9.826;2024-01-30T11:31:05;5.90;99.90
20141;DHT22;10231;47.702;9.826;2024-01-30T11:33:32;6.00;99.90
20141;DHT22;10231;47.702;9.826;2024-01-30T11:35:59;6.00;99.90
20141;DHT22;10231;47.702;9.826;2024-01-30T11:38:26;6.10;99.90
20141;DHT22;10231;47.702;9.826;2024-01-30T11:40:54;6.20;99.90
20141;DHT22;10231;47.702;9.826;2024-01-30T11:43:20;6.30;99.90
20141;DHT22;10231;47.702;9.826;2024-01-30T11:45:45;6.40;99.90
20141;DHT22;10231;47.702;9.826;2024-01-30T11:48:12;6.50;99.90
20141;DHT22;10231;47.702;9.826;2024-01-30T11:50:39;6.50;99.90
20141;DHT22;10231;47.702;9.826;2024-01-30T11:53:05;6.60;99.90
20141;DHT22;10231;47.702;9.826;2024-01-30T11:55:31;6.70;99.90
20141;DHT22;10231;47.702;9.826;2024-01-30T11:57:57;6.80;99.90
20141;DHT22;10231;47.702;9.826;2024-01-30T12:00:23;6.80;99.90
20141;DHT22;10231;47.702;9.826;2024-01-30T12:02:50;6.90;99.90
20141;DHT22;10231;47.702;9.826;2024-01-30T12:05:18;6.90;99.90
20141;DHT22;10231;47.702;9.826;2024-01-30T12:07:45;6.90;99.90
20141;DHT22;10231;47.702;9.826;2024-01-30T12:10:12;6.90;99.90
20141;DHT22;10231;47.702;9.826;2024-01-30T12:12:40;7.00;99.90
20141;DHT22;10231;47.702;9.826;2024-01-30T12:15:07;7.00;99.90
20141;DHT22;10231;47.702;9.826;2024-01-30T12:17:33;7.10;99.90
20141;DHT22;10231;47.702;9.826;2024-01-30T12:20:22;7.20;99.90
20141;DHT22;10231;47.702;9.826;2024-01-30T12:22:49;7.40;99.90
20141;DHT22;10231;47.702;9.826;2024-01-30T12:25:17;7.50;99.90
20141;DHT22;10231;47.702;9.826;2024-01-30T12:27:43;7.50;99.90
20141;DHT22;10231;47.702;9.826;2024-01-30T12:30:13;7.50;99.90
20141;DHT22;10231;47.702;9.826;2024-01-30T12:32:43;7.60;99.90
20141;DHT22;10231;47.702;9.826;2024-01-30T12:35:14;7.60;99.90
20141;DHT22;10231;47.702;9.826;2024-01-30T12:37:40;7.60;99.90
20141;DHT22;10231;47.702;9.826;2024-01-30T12:40:10;7.60;99.90
20141;DHT22;10231;47.702;9.826;2024-01-30T12:42:37;7.70;99.90
20141;DHT22;10231;47.702;9.826;2024-01-30T12:45:03;7.70;99.90
20141;DHT22;10231;47.702;9.826;2024-01-30T12:47:29;7.70;99.90
20141;DHT22;10231;47.702;9.826;2024-01-30T12:49:55;7.80;99.90
20141;DHT22;10231;47.702;9.826;2024-01-30T12:52:22;7.80;99.90
20141;DHT22;10231;47.702;9.826;2024-01-30T12:54:49;7.80;99.90
20141;DHT22;10231;47.702;9.826;2024-01-30T12:57:15;7.80;99.90
20141;DHT22;10231;47.702;9.826;2024-01-30T12:59:41;7.80;99.90
20141;DHT22;10231;47.702;9.826;2024-01-30T13:02:07;7.80;99.90
20141;DHT22;10231;47.702;9.826;2024-01-30T13:04:33;7.80;99.90
20141;DHT22;10231;47.702;9.826;2024-01-30T13:06:59;7.80;99.90
20141;DHT22;10231;47.702;9.826;2024-01-30T13:09:26;7.80;99.90
20141;DHT22;10231;47.702;9.826;2024-01-30T13:11:52;7.80;99.90
20141;DHT22;10231;47.702;9.826;2024-01-30T13:14:18;7.80;99.90
20141;DHT22;10231;47.702;9.826;2024-01-30T13:16:44;7.80;99.90
20141;DHT22;10231;47.702;9.826;2024-01-30T13:19:10;7.90;99.90
20141;DHT22;10231;47.702;9.826;2024-01-30T13:21:36;7.90;99.90
20141;DHT22;10231;47.702;9.826;2024-01-30T13:24:01;7.90;99.90
20141;DHT22;10231;47.702;9.826;2024-01-30T13:26:27;7.90;99.90
20141;DHT22;10231;47.702;9.826;2024-01-30T13:28:53;7.90;99.90
20141;DHT22;10231;47.702;9.826;2024-01-30T13:31:19;8.00;99.90
20141;DHT22;10231;47.702;9.826;2024-01-30T13:33:44;8.00;99.90
20141;DHT22;10231;47.702;9.826;2024-01-30T13:36:11;8.00;99.90
20141;DHT22;10231;47.702;9.826;2024-01-30T13:38:37;8.20;99.90
20141;DHT22;10231;47.702;9.826;2024-01-30T13:41:03;8.30;99.90
20141;DHT22;10231;47.702;9.826;2024-01-30T13:43:29;8.40;99.90
20141;DHT22;10231;47.702;9.826;2024-01-30T13:45:54;8.50;99.90
20141;DHT22;10231;47.702;9.826;2024-01-30T13:48:20;8.50;99.90
20141;DHT22;10231;47.702;9.826;2024-01-30T13:50:46;8.60;99.90
20141;DHT22;10231;47.702;9.826;2024-01-30T13:53:11;8.80;99.90
20141;DHT22;10231;47.702;9.826;2024-01-30T13:55:37;8.90;99.90
20141;DHT22;10231;47.702;9.826;2024-01-30T13:58:04;9.10;99.90
20141;DHT22;10231;47.702;9.826;2024-01-30T14:00:30;9.20;99.90
20141;DHT22;10231;47.702;9.826;2024-01-30T14:02:56;9.30;99.90
20141;DHT22;10231;47.702;9.826;2024-01-30T14:05:23;9.40;99.90
20141;DHT22;10231;47.702;9.826;2024-01-30T14:07:48;9.40;99.90
20141;DHT22;10231;47.702;9.826;2024-01-30T14:10:15;9.40;99.90
20141;DHT22;10231;47.702;9.826;2024-01-30T14:12:42;9.40;99.90
20141;DHT22;10231;47.702;9.826;2024-01-30T14:15:09;9.30;99.90
20141;DHT22;10231;47.702;9.826;2024-01-30T14:17:38;9.30;99.90
20141;DHT22;10231;47.702;9.826;2024-01-30T14:20:04;9.30;99.90
20141;DHT22;10231;47.702;9.826;2024-01-30T14:22:30;9.30;99.90
20141;DHT22;10231;47.702;9.826;2024-01-30T14:24:56;9.20;99.90
20141;DHT22;10231;47.702;9.826;2024-01-30T14:27:22;9.20;99.90
20141;DHT22;10231;47.702;9.826;2024-01-30T14:29:47;9.30;99.90
20141;DHT22;10231;47.702;9.826;2024-01-30T14:32:13;9.60;99.90
20141;DHT22;10231;47.702;9.826;2024-01-30T14:34:38;9.90;99.90
20141;DHT22;10231;47.702;9.826;2024-01-30T14:37:04;10.30;99.90
20141;DHT22;10231;47.702;9.826;2024-01-30T14:39:30;10.60;99.90
20141;DHT22;10231;47.702;9.826;2024-01-30T14:41:55;10.60;99.90
20141;DHT22;10231;47.702;9.826;2024-01-30T14:44:21;10.40;99.90
20141;DHT22;10231;47.702;9.826;2024-01-30T14:46:48;10.20;99.90
20141;DHT22;10231;47.702;9.826;2024-01-30T14:49:13;9.90;99.90
20141;DHT22;10231;47.702;9.826;2024-01-30T14:51:41;9.60;99.90
20141;DHT22;10231;47.702;9.826;2024-01-30T14:54:06;9.40;99.90
20141;DHT22;10231;47.702;9.826;2024-01-30T14:56:32;9.20;99.90
20141;DHT22;10231;47.702;9.826;2024-01-30T14:58:58;9.10;99.90
20141;DHT22;10231;47.702;9.826;2024-01-30T15:01:24;8.90;99.90
20141;DHT22;10231;47.702;9.826;2024-01-30T15:03:49;8.80;99.90
20141;DHT22;10231;47.702;9.826;2024-01-30T15:06:17;8.70;99.90
20141;DHT22;10231;47.702;9.826;2024-01-30T15:08:43;8.70;99.90
20141;DHT22;10231;47.702;9.826;2024-01-30T15:11:08;8.60;99.90
20141;DHT22;10231;47.702;9.826;2024-01-30T15:13:34;8.50;99.90
20141;DHT22;10231;47.702;9.826;2024-01-30T15:15:59;8.50;99.90
20141;DHT22;10231;47.702;9.826;2024-01-30T15:18:27;8.50;99.90
20141;DHT22;10231;47.702;9.826;2024-01-30T15:20:53;8.40;99.90
20141;DHT22;10231;47.702;9.826;2024-01-30T15:23:18;8.30;99.90
20141;DHT22;10231;47.702;9.826;2024-01-30T15:25:44;8.20;99.90
20141;DHT22;10231;47.702;9.826;2024-01-30T15:28:09;8.10;99.90
20141;DHT22;10231;47.702;9.826;2024-01-30T15:30:35;7.90;99.90
20141;DHT22;10231;47.702;9.826;2024-01-30T15:33:01;7.90;99.90
20141;DHT22;10231;47.702;9.826;2024-01-30T15:35:27;7.80;99.90
20141;DHT22;10231;47.702;9.826;2024-01-30T15:37:53;7.70;99.90